sensor_id;sensor_type;location;lat;lon;timestamp;P1;durP1;ratioP1;P2;durP2;ratioP2
27383;SDS011;14851;51.166;4.760;2024-01-30T00:00:10;10.60;;;6.90;;
27383;SDS011;14851;51.166;4.760;2024-01-30T00:02:37;11.20;;;7.63;;
27383;SDS011;14851;51.166;4.760;2024-01-30T00:05:05;12.25;;;7.20;;
27383;SDS011;14851;51.166;4.760;2024-01-30T00:07:32;15.18;;;7.82;;
27383;SDS011;14851;51.166;4.760;2024-01-30T00:09:58;9.75;;;7.35;;
27383;SDS011;14851;51.166;4.760;2024-01-30T00:12:25;12.38;;;7.20;;
27383;SDS011;14851;51.166;4.760;2024-01-30T00:14:51;11.27;;;7.50;;
27383;SDS011;14851;51.166;4.760;2024-01-30T00:17:17;10.45;;;6.90;;
27383;SDS011;14851;51.166;4.760;2024-01-30T00:19:47;9.77;;;7.55;;
27383;SDS011;14851;51.166;4.760;2024-01-30T00:22:14;10.13;;;7.85;;
27383;SDS011;14851;51.166;4.760;2024-01-30T00:24:42;12.05;;;7.72;;
27383;SDS011;14851;51.166;4.760;2024-01-30T00:27:08;11.23;;;7.68;;
27383;SDS011;14851;51.166;4.760;2024-01-30T00:29:35;12.25;;;7.90;;
27383;SDS011;14851;51.166;4.760;2024-01-30T00:32:01;13.65;;;7.60;;
27383;SDS011;14851;51.166;4.760;2024-01-30T00:34:27;11.38;;;7.90;;
27383;SDS011;14851;51.166;4.760;2024-01-30T00:36:56;10.25;;;7.35;;
27383;SDS011;14851;51.166;4.760;2024-01-30T00:39:22;9.00;;;7.65;;
27383;SDS011;14851;51.166;4.760;2024-01-30T00:41:53;11.20;;;8.13;;
27383;SDS011;14851;51.166;4.760;2024-01-30T00:44:26;14.65;;;8.35;;
27383;SDS011;14851;51.166;4.760;2024-01-30T00:46:56;9.90;;;7.65;;
27383;SDS011;14851;51.166;4.760;2024-01-30T00:49:23;12.60;;;7.83;;
27383;SDS011;14851;51.166;4.760;2024-01-30T00:51:48;9.23;;;7.65;;
27383;SDS011;14851;51.166;4.760;2024-01-30T00:54:15;8.63;;;7.38;;
27383;SDS011;14851;51.166;4.760;2024-01-30T00:56:44;11.10;;;7.82;;
27383;SDS011;14851;51.166;4.760;2024-01-30T00:59:10;13.27;;;7.47;;
27383;SDS011;14851;51.166;4.760;2024-01-30T01:01:40;9.95;;;8.32;;
27383;SDS011;14851;51.166;4.760;2024-01-30T01:04:05;12.20;;;8.70;;
27383;SDS011;14851;51.166;4.760;2024-01-30T01:06:36;11.20;;;7.68;;
27383;SDS011;14851;51.166;4.760;2024-01-30T01:09:04;9.73;;;7.13;;
27383;SDS011;14851;51.166;4.760;2024-01-30T01:11:30;11.15;;;8.27;;
27383;SDS011;14851;51.166;4.760;2024-01-30T01:13:56;13.40;;;8.30;;
27383;SDS011;14851;51.166;4.760;2024-01-30T01:16:22;10.38;;;8.05;;
27383;SDS011;14851;51.166;4.760;2024-01-30T01:18:49;13.27;;;8.07;;
27383;SDS011;14851;51.166;4.760;2024-01-30T01:21:15;9.82;;;7.65;;
27383;SDS011;14851;51.166;4.760;2024-01-30T01:23:43;10.15;;;7.10;;
27383;SDS011;14851;51.166;4.760;2024-01-30T01:26:09;11.57;;;8.00;;
27383;SDS011;14851;51.166;4.760;2024-01-30T01:28:35;10.45;;;7.93;;
27383;SDS011;14851;51.166;4.760;2024-01-30T01:31:01;9.20;;;6.40;;
27383;SDS011;14851;51.166;4.760;2024-01-30T01:33:31;13.32;;;7.82;;
27383;SDS011;14851;51.166;4.760;2024-01-30T01:35:58;12.98;;;8.13;;
27383;SDS011;14851;51.166;4.760;2024-01-30T01:38:24;9.70;;;7.53;;
27383;SDS011;14851;51.166;4.760;2024-01-30T01:40:51;14.38;;;7.10;;
27383;SDS011;14851;51.166;4.760;2024-01-30T01:43:17;9.13;;;6.82;;
27383;SDS011;14851;51.166;4.760;2024-01-30T01:45:46;9.55;;;6.57;;
27383;SDS011;14851;51.166;4.760;2024-01-30T01:48:12;10.13;;;6.60;;
27383;SDS011;14851;51.166;4.760;2024-01-30T01:50:43;9.80;;;7.38;;
27383;SDS011;14851;51.166;4.760;2024-01-30T01:53:10;10.57;;;7.15;;
27383;SDS011;14851;51.166;4.760;2024-01-30T01:55:40;9.00;;;6.55;;
27383;SDS011;14851;51.166;4.760;2024-01-30T01:58:06;9.68;;;6.65;;
27383;SDS011;14851;51.166;4.760;2024-01-30T02:00:34;10.35;;;7.18;;
27383;SDS011;14851;51.166;4.760;2024-01-30T02:03:05;9.73;;;7.15;;
27383;SDS011;14851;51.166;4.760;2024-01-30T02:05:32;11.40;;;7.38;;
27383;SDS011;14851;51.166;4.760;2024-01-30T02:07:58;12.00;;;7.03;;
27383;SDS011;14851;51.166;4.760;2024-01-30T02:10:24;12.50;;;6.57;;
27383;SDS011;14851;51.166;4.760;2024-01-30T02:12:51;9.75;;;6.88;;
27383;SDS011;14851;51.166;4.760;2024-01-30T02:15:18;8.95;;;6.35;;
27383;SDS011;14851;51.166;4.760;2024-01-30T02:17:46;10.70;;;6.97;;
27383;SDS011;14851;51.166;4.760;2024-01-30T02:20:14;11.85;;;7.32;;
27383;SDS011;14851;51.166;4.760;2024-01-30T02:22:40;9.40;;;6.82;;
27383;SDS011;14851;51.166;4.760;2024-01-30T02:25:06;8.88;;;6.30;;
27383;SDS011;14851;51.166;4.760;2024-01-30T02:27:33;9.95;;;6.18;;
27383;SDS011;14851;51.166;4.760;2024-01-30T02:29:59;7.53;;;5.95;;
27383;SDS011;14851;51.166;4.760;2024-01-30T02:32:25;8.95;;;6.00;;
27383;SDS011;14851;51.166;4.760;2024-01-30T02:34:51;10.38;;;6.95;;
27383;SDS011;14851;51.166;4.760;2024-01-30T02:37:19;9.15;;;6.65;;
27383;SDS011;14851;51.166;4.760;2024-01-30T02:39:47;8.88;;;6.38;;
27383;SDS011;14851;51.166;4.760;2024-01-30T02:42:13;7.57;;;6.15;;
27383;SDS011;14851;51.166;4.760;2024-01-30T02:44:40;8.55;;;5.95;;
27383;SDS011;14851;51.166;4.760;2024-01-30T02:47:06;10.50;;;6.18;;
27383;SDS011;14851;51.166;4.760;2024-01-30T02:49:33;7.75;;;5.72;;
27383;SDS011;14851;51.166;4.760;2024-01-30T02:52:02;8.00;;;5.20;;
27383;SDS011;14851;51.166;4.760;2024-01-30T02:54:28;7.28;;;5.22;;
27383;SDS011;14851;51.166;4.760;2024-01-30T02:57:00;9.07;;;5.78;;
27383;SDS011;14851;51.166;4.760;2024-01-30T02:59:26;9.18;;;6.20;;
27383;SDS011;14851;51.166;4.760;2024-01-30T03:01:52;8.23;;;6.03;;
27383;SDS011;14851;51.166;4.760;2024-01-30T03:04:18;6.38;;;5.32;;
27383;SDS011;14851;51.166;4.760;2024-01-30T03:06:45;8.88;;;5.75;;
27383;SDS011;14851;51.166;4.760;2024-01-30T03:09:15;12.02;;;6.63;;
27383;SDS011;14851;51.166;4.760;2024-01-30T03:11:44;8.35;;;5.68;;
27383;SDS011;14851;51.166;4.760;2024-01-30T03:14:10;9.55;;;6.15;;
27383;SDS011;14851;51.166;4.760;2024-01-30T03:16:38;6.82;;;5.35;;
27383;SDS011;14851;51.166;4.760;2024-01-30T03:19:08;7.75;;;5.65;;
27383;SDS011;14851;51.166;4.760;2024-01-30T03:21:35;6.60;;;5.57;;
27383;SDS011;14851;51.166;4.760;2024-01-30T03:24:01;8.63;;;5.78;;
27383;SDS011;14851;51.166;4.760;2024-01-30T03:26:28;7.50;;;6.05;;
27383;SDS011;14851;51.166;4.760;2024-01-30T03:28:57;8.13;;;5.78;;
27383;SDS011;14851;51.166;4.760;2024-01-30T03:31:23;12.50;;;5.63;;
27383;SDS011;14851;51.166;4.760;2024-01-30T03:33:50;7.05;;;5.10;;
27383;SDS011;14851;51.166;4.760;2024-01-30T03:36:16;9.38;;;5.93;;
27383;SDS011;14851;51.166;4.760;2024-01-30T03:38:48;7.22;;;6.10;;
27383;SDS011;14851;51.166;4.760;2024-01-30T03:41:19;9.50;;;5.13;;
27383;SDS011;14851;51.166;4.760;2024-01-30T03:43:47;7.07;;;5.55;;
27383;SDS011;14851;51.166;4.760;2024-01-30T03:46:13;7.88;;;5.35;;
27383;SDS011;14851;51.166;4.760;2024-01-30T03:48:41;10.15;;;5.50;;
27383;SDS011;14851;51.166;4.760;2024-01-30T03:51:08;8.52;;;5.75;;
27383;SDS011;14851;51.166;4.760;2024-01-30T03:53:40;10.13;;;6.18;;
27383;SDS011;14851;51.166;4.760;2024-01-30T03:56:11;7.63;;;5.70;;
27383;SDS011;14851;51.166;4.760;2024-01-30T03:58:41;8.50;;;5.78;;
27383;SDS011;14851;51.166;4.760;2024-01-30T04:01:07;9.60;;;5.97;;
27383;SDS011;14851;51.166;4.760;2024-01-30T04:03:38;7.63;;;6.22;;
27383;SDS011;14851;51.166;4.760;2024-01-30T04:06:04;8.20;;;5.90;;
27383;SDS011;14851;51.166;4.760;2024-01-30T04:08:30;9.20;;;5.35;;
27383;SDS011;14851;51.166;4.760;2024-01-30T04:10:56;6.60;;;5.45;;
27383;SDS011;14851;51.166;4.760;2024-01-30T04:13:25;9.30;;;5.60;;
27383;SDS011;14851;51.166;4.760;2024-01-30T04:15:51;6.85;;;5.55;;
27383;SDS011;14851;51.166;4.760;2024-01-30T04:18:18;7.53;;;4.80;;
27383;SDS011;14851;51.166;4.760;2024-01-30T04:20:44;6.60;;;5.53;;
27383;SDS011;14851;51.166;4.760;2024-01-30T04:23:11;7.57;;;4.90;;
27383;SDS011;14851;51.166;4.760;2024-01-30T04:25:39;9.40;;;6.35;;
27383;SDS011;14851;51.166;4.760;2024-01-30T04:28:06;6.93;;;5.18;;
27383;SDS011;14851;51.166;4.760;2024-01-30T04:30:31;9.13;;;6.03;;
27383;SDS011;14851;51.166;4.760;2024-01-30T04:32:57;8.98;;;6.28;;
27383;SDS011;14851;51.166;4.760;2024-01-30T04:35:23;7.03;;;5.82;;
27383;SDS011;14851;51.166;4.760;2024-01-30T04:37:55;7.35;;;5.45;;
27383;SDS011;14851;51.166;4.760;2024-01-30T04:40:21;7.35;;;5.60;;
27383;SDS011;14851;51.166;4.760;2024-01-30T04:42:47;7.82;;;5.43;;
27383;SDS011;14851;51.166;4.760;2024-01-30T04:45:17;7.25;;;5.60;;
27383;SDS011;14851;51.166;4.760;2024-01-30T04:47:45;7.20;;;5.00;;
27383;SDS011;14851;51.166;4.760;2024-01-30T04:50:11;7.97;;;5.40;;
27383;SDS011;14851;51.166;4.760;2024-01-30T04:52:38;7.75;;;5.78;;
27383;SDS011;14851;51.166;4.760;2024-01-30T04:55:04;7.47;;;5.85;;
27383;SDS011;14851;51.166;4.760;2024-01-30T04:57:30;6.82;;;5.50;;
27383;SDS011;14851;51.166;4.760;2024-01-30T04:59:59;5.60;;;5.05;;
27383;SDS011;14851;51.166;4.760;2024-01-30T05:02:25;8.65;;;5.78;;
27383;SDS011;14851;51.166;4.760;2024-01-30T05:04:51;8.60;;;5.47;;
27383;SDS011;14851;51.166;4.760;2024-01-30T05:07:17;6.78;;;5.28;;
27383;SDS011;14851;51.166;4.760;2024-01-30T05:09:43;9.02;;;6.30;;
27383;SDS011;14851;51.166;4.760;2024-01-30T05:12:09;9.32;;;5.50;;
27383;SDS011;14851;51.166;4.760;2024-01-30T05:14:38;8.00;;;5.15;;
27383;SDS011;14851;51.166;4.760;2024-01-30T05:17:06;8.07;;;5.68;;
27383;SDS011;14851;51.166;4.760;2024-01-30T05:19:35;7.68;;;5.32;;
27383;SDS011;14851;51.166;4.760;2024-01-30T05:22:03;6.65;;;5.80;;
27383;SDS011;14851;51.166;4.760;2024-01-30T05:24:30;7.63;;;6.00;;
27383;SDS011;14851;51.166;4.760;2024-01-30T05:26:56;7.93;;;5.63;;
27383;SDS011;14851;51.166;4.760;2024-01-30T05:29:23;8.52;;;5.63;;
27383;SDS011;14851;51.166;4.760;2024-01-30T05:31:49;7.82;;;5.55;;
27383;SDS011;14851;51.166;4.760;2024-01-30T05:34:16;9.93;;;6.10;;
27383;SDS011;14851;51.166;4.760;2024-01-30T05:36:42;6.50;;;5.28;;
27383;SDS011;14851;51.166;4.760;2024-01-30T05:39:08;7.28;;;4.80;;
27383;SDS011;14851;51.166;4.760;2024-01-30T05:41:34;6.38;;;5.15;;
27383;SDS011;14851;51.166;4.760;2024-01-30T05:44:00;7.55;;;5.25;;
27383;SDS011;14851;51.166;4.760;2024-01-30T05:46:29;6.20;;;5.18;;
27383;SDS011;14851;51.166;4.760;2024-01-30T05:48:55;10.55;;;5.47;;
27383;SDS011;14851;51.166;4.760;2024-01-30T05:51:21;6.25;;;4.45;;
27383;SDS011;14851;51.166;4.760;2024-01-30T05:53:47;6.63;;;5.20;;
27383;SDS011;14851;51.166;4.760;2024-01-30T05:56:15;8.32;;;5.22;;
27383;SDS011;14851;51.166;4.760;2024-01-30T05:58:41;7.55;;;4.53;;
27383;SDS011;14851;51.166;4.760;2024-01-30T06:01:08;7.95;;;5.35;;
27383;SDS011;14851;51.166;4.760;2024-01-30T06:03:34;9.65;;;5.47;;
27383;SDS011;14851;51.166;4.760;2024-01-30T06:06:03;7.70;;;5.22;;
27383;SDS011;14851;51.166;4.760;2024-01-30T06:08:32;8.75;;;6.00;;
27383;SDS011;14851;51.166;4.760;2024-01-30T06:10:59;9.77;;;5.70;;
27383;SDS011;14851;51.166;4.760;2024-01-30T06:13:25;5.38;;;4.45;;
27383;SDS011;14851;51.166;4.760;2024-01-30T06:15:57;6.57;;;4.55;;
27383;SDS011;14851;51.166;4.760;2024-01-30T06:18:24;8.68;;;4.85;;
27383;SDS011;14851;51.166;4.760;2024-01-30T06:20:52;8.55;;;5.88;;
27383;SDS011;14851;51.166;4.760;2024-01-30T06:23:20;6.65;;;4.55;;
27383;SDS011;14851;51.166;4.760;2024-01-30T06:25:51;9.20;;;5.80;;
27383;SDS011;14851;51.166;4.760;2024-01-30T06:28:17;7.05;;;4.82;;
27383;SDS011;14851;51.166;4.760;2024-01-30T06:30:43;6.55;;;4.65;;
27383;SDS011;14851;51.166;4.760;2024-01-30T06:33:11;7.10;;;5.78;;
27383;SDS011;14851;51.166;4.760;2024-01-30T06:35:40;8.68;;;5.68;;
27383;SDS011;14851;51.166;4.760;2024-01-30T06:38:11;11.32;;;5.65;;
27383;SDS011;14851;51.166;4.760;2024-01-30T06:40:38;9.27;;;6.18;;
27383;SDS011;14851;51.166;4.760;2024-01-30T06:43:05;8.68;;;5.45;;
27383;SDS011;14851;51.166;4.760;2024-01-30T06:45:33;8.18;;;5.38;;
27383;SDS011;14851;51.166;4.760;2024-01-30T06:48:00;8.60;;;4.78;;
27383;SDS011;14851;51.166;4.760;2024-01-30T06:50:29;6.15;;;5.45;;
27383;SDS011;14851;51.166;4.760;2024-01-30T06:52:58;8.27;;;6.00;;
27383;SDS011;14851;51.166;4.760;2024-01-30T06:55:25;10.48;;;5.90;;
27383;SDS011;14851;51.166;4.760;2024-01-30T06:57:50;8.93;;;5.68;;
27383;SDS011;14851;51.166;4.760;2024-01-30T07:00:19;7.22;;;5.28;;
27383;SDS011;14851;51.166;4.760;2024-01-30T07:02:46;6.75;;;5.22;;
27383;SDS011;14851;51.166;4.760;2024-01-30T07:05:12;8.88;;;5.70;;
27383;SDS011;14851;51.166;4.760;2024-01-30T07:07:39;8.52;;;5.30;;
27383;SDS011;14851;51.166;4.760;2024-01-30T07:10:08;7.07;;;5.40;;
27383;SDS011;14851;51.166;4.760;2024-01-30T07:12:34;9.52;;;5.82;;
27383;SDS011;14851;51.166;4.760;2024-01-30T07:15:00;7.63;;;5.20;;
27383;SDS011;14851;51.166;4.760;2024-01-30T07:17:29;9.43;;;6.30;;
27383;SDS011;14851;51.166;4.760;2024-01-30T07:19:55;8.52;;;5.63;;
27383;SDS011;14851;51.166;4.760;2024-01-30T07:22:21;7.78;;;6.10;;
27383;SDS011;14851;51.166;4.760;2024-01-30T07:24:47;7.30;;;5.63;;
27383;SDS011;14851;51.166;4.760;2024-01-30T07:27:14;11.65;;;5.38;;
27383;SDS011;14851;51.166;4.760;2024-01-30T07:29:43;10.68;;;5.70;;
27383;SDS011;14851;51.166;4.760;2024-01-30T07:32:09;8.57;;;5.70;;
27383;SDS011;14851;51.166;4.760;2024-01-30T07:34:35;10.23;;;6.38;;
27383;SDS011;14851;51.166;4.760;2024-01-30T07:37:04;8.40;;;6.25;;
27383;SDS011;14851;51.166;4.760;2024-01-30T07:39:33;9.95;;;6.43;;
27383;SDS011;14851;51.166;4.760;2024-01-30T07:42:00;9.63;;;6.65;;
27383;SDS011;14851;51.166;4.760;2024-01-30T07:44:28;10.82;;;6.70;;
27383;SDS011;14851;51.166;4.760;2024-01-30T07:46:57;11.10;;;6.15;;
27383;SDS011;14851;51.166;4.760;2024-01-30T07:49:25;7.60;;;5.68;;
27383;SDS011;14851;51.166;4.760;2024-01-30T07:51:53;8.93;;;6.07;;
27383;SDS011;14851;51.166;4.760;2024-01-30T07:54:19;9.50;;;5.95;;
27383;SDS011;14851;51.166;4.760;2024-01-30T07:56:45;7.53;;;5.80;;
27383;SDS011;14851;51.166;4.760;2024-01-30T07:59:11;11.43;;;5.93;;
27383;SDS011;14851;51.166;4.760;2024-01-30T08:01:38;8.30;;;5.95;;
27383;SDS011;14851;51.166;4.760;2024-01-30T08:04:04;9.05;;;6.45;;
27383;SDS011;14851;51.166;4.760;2024-01-30T08:06:33;9.68;;;6.38;;
27383;SDS011;14851;51.166;4.760;2024-01-30T08:09:01;9.20;;;6.18;;
27383;SDS011;14851;51.166;4.760;2024-01-30T08:11:31;10.90;;;6.57;;
27383;SDS011;14851;51.166;4.760;2024-01-30T08:13:57;7.00;;;5.28;;
27383;SDS011;14851;51.166;4.760;2024-01-30T08:16:25;9.82;;;6.07;;
27383;SDS011;14851;51.166;4.760;2024-01-30T08:18:51;8.18;;;6.00;;
27383;SDS011;14851;51.166;4.760;2024-01-30T08:21:19;12.75;;;6.95;;
27383;SDS011;14851;51.166;4.760;2024-01-30T08:23:45;38.90;;;15.95;;
27383;SDS011;14851;51.166;4.760;2024-01-30T08:26:12;19.67;;;9.95;;
27383;SDS011;14851;51.166;4.760;2024-01-30T08:28:38;23.13;;;12.15;;
27383;SDS011;14851;51.166;4.760;2024-01-30T08:31:06;11.48;;;7.90;;
27383;SDS011;14851;51.166;4.760;2024-01-30T08:33:35;12.15;;;7.05;;
27383;SDS011;14851;51.166;4.760;2024-01-30T08:36:02;9.55;;;6.30;;
27383;SDS011;14851;51.166;4.760;2024-01-30T08:38:28;10.80;;;6.13;;
27383;SDS011;14851;51.166;4.760;2024-01-30T08:40:55;8.52;;;6.00;;
27383;SDS011;14851;51.166;4.760;2024-01-30T08:43:25;10.38;;;6.35;;
27383;SDS011;14851;51.166;4.760;2024-01-30T08:45:52;9.40;;;6.05;;
27383;SDS011;14851;51.166;4.760;2024-01-30T08:48:18;9.52;;;6.70;;
27383;SDS011;14851;51.166;4.760;2024-01-30T08:50:44;10.13;;;7.03;;
27383;SDS011;14851;51.166;4.760;2024-01-30T08:53:10;11.63;;;7.47;;
27383;SDS011;14851;51.166;4.760;2024-01-30T08:55:37;9.30;;;6.60;;
27383;SDS011;14851;51.166;4.760;2024-01-30T08:58:04;9.90;;;6.72;;
27383;SDS011;14851;51.166;4.760;2024-01-30T09:00:31;11.48;;;6.53;;
27383;SDS011;14851;51.166;4.760;2024-01-30T09:03:00;12.50;;;6.78;;
27383;SDS011;14851;51.166;4.760;2024-01-30T09:05:27;11.13;;;6.82;;
27383;SDS011;14851;51.166;4.760;2024-01-30T09:07:55;12.02;;;6.68;;
27383;SDS011;14851;51.166;4.760;2024-01-30T09:10:22;11.55;;;6.40;;
27383;SDS011;14851;51.166;4.760;2024-01-30T09:12:48;10.60;;;6.88;;
27383;SDS011;14851;51.166;4.760;2024-01-30T09:15:14;12.52;;;7.10;;
27383;SDS011;14851;51.166;4.760;2024-01-30T09:17:42;8.93;;;6.07;;
27383;SDS011;14851;51.166;4.760;2024-01-30T09:20:08;13.85;;;6.65;;
27383;SDS011;14851;51.166;4.760;2024-01-30T09:22:37;15.73;;;6.50;;
27383;SDS011;14851;51.166;4.760;2024-01-30T09:25:05;9.77;;;5.70;;
27383;SDS011;14851;51.166;4.760;2024-01-30T09:27:34;13.90;;;6.60;;
27383;SDS011;14851;51.166;4.760;2024-01-30T09:30:00;13.55;;;6.43;;
27383;SDS011;14851;51.166;4.760;2024-01-30T09:32:26;16.17;;;7.20;;
27383;SDS011;14851;51.166;4.760;2024-01-30T09:34:52;15.93;;;7.60;;
27383;SDS011;14851;51.166;4.760;2024-01-30T09:37:19;15.23;;;7.30;;
27383;SDS011;14851;51.166;4.760;2024-01-30T09:39:46;15.55;;;7.50;;
27383;SDS011;14851;51.166;4.760;2024-01-30T09:44:44;12.73;;;7.50;;
27383;SDS011;14851;51.166;4.760;2024-01-30T09:47:15;13.55;;;7.45;;
27383;SDS011;14851;51.166;4.760;2024-01-30T09:49:44;14.40;;;6.78;;
27383;SDS011;14851;51.166;4.760;2024-01-30T09:52:10;14.23;;;7.65;;
27383;SDS011;14851;51.166;4.760;2024-01-30T09:54:37;18.33;;;7.90;;
27383;SDS011;14851;51.166;4.760;2024-01-30T09:57:04;18.45;;;8.40;;
27383;SDS011;14851;51.166;4.760;2024-01-30T09:59:33;15.07;;;8.07;;
27383;SDS011;14851;51.166;4.760;2024-01-30T10:01:59;13.35;;;8.18;;
27383;SDS011;14851;51.166;4.760;2024-01-30T10:04:26;13.68;;;7.65;;
27383;SDS011;14851;51.166;4.760;2024-01-30T10:06:52;12.73;;;7.82;;
27383;SDS011;14851;51.166;4.760;2024-01-30T10:09:18;17.27;;;9.15;;
27383;SDS011;14851;51.166;4.760;2024-01-30T10:11:44;11.80;;;7.45;;
27383;SDS011;14851;51.166;4.760;2024-01-30T10:14:13;15.35;;;8.52;;
27383;SDS011;14851;51.166;4.760;2024-01-30T10:16:40;16.80;;;8.80;;
27383;SDS011;14851;51.166;4.760;2024-01-30T10:19:06;15.43;;;8.50;;
27383;SDS011;14851;51.166;4.760;2024-01-30T10:21:32;15.88;;;8.13;;
27383;SDS011;14851;51.166;4.760;2024-01-30T10:23:59;15.57;;;8.70;;
27383;SDS011;14851;51.166;4.760;2024-01-30T10:26:25;13.02;;;8.75;;
27383;SDS011;14851;51.166;4.760;2024-01-30T10:28:51;15.02;;;9.05;;
27383;SDS011;14851;51.166;4.760;2024-01-30T10:31:18;17.50;;;8.77;;
27383;SDS011;14851;51.166;4.760;2024-01-30T10:33:45;14.40;;;8.45;;
27383;SDS011;14851;51.166;4.760;2024-01-30T10:36:13;13.40;;;8.35;;
27383;SDS011;14851;51.166;4.760;2024-01-30T10:38:46;14.85;;;8.02;;
27383;SDS011;14851;51.166;4.760;2024-01-30T10:41:19;11.02;;;7.65;;
27383;SDS011;14851;51.166;4.760;2024-01-30T10:44:03;13.07;;;8.85;;
27383;SDS011;14851;51.166;4.760;2024-01-30T10:46:40;15.25;;;6.75;;
27383;SDS011;14851;51.166;4.760;2024-01-30T10:49:13;14.90;;;7.35;;
27383;SDS011;14851;51.166;4.760;2024-01-30T10:51:40;11.93;;;6.97;;
27383;SDS011;14851;51.166;4.760;2024-01-30T10:54:08;14.27;;;7.35;;
27383;SDS011;14851;51.166;4.760;2024-01-30T10:56:38;13.65;;;7.07;;
27383;SDS011;14851;51.166;4.760;2024-01-30T10:59:05;15.57;;;8.20;;
27383;SDS011;14851;51.166;4.760;2024-01-30T11:01:31;8.93;;;6.45;;
27383;SDS011;14851;51.166;4.760;2024-01-30T11:04:00;13.00;;;6.45;;
27383;SDS011;14851;51.166;4.760;2024-01-30T11:06:27;12.57;;;6.55;;
27383;SDS011;14851;51.166;4.760;2024-01-30T11:09:02;13.60;;;7.13;;
27383;SDS011;14851;51.166;4.760;2024-01-30T11:11:29;13.98;;;6.40;;
27383;SDS011;14851;51.166;4.760;2024-01-30T11:13:55;11.52;;;5.47;;
27383;SDS011;14851;51.166;4.760;2024-01-30T11:16:30;9.38;;;4.85;;
27383;SDS011;14851;51.166;4.760;2024-01-30T11:19:00;7.47;;;4.32;;
27383;SDS011;14851;51.166;4.760;2024-01-30T11:21:28;8.90;;;4.40;;
27383;SDS011;14851;51.166;4.760;2024-01-30T11:23:54;7.38;;;4.80;;
27383;SDS011;14851;51.166;4.760;2024-01-30T11:26:24;8.00;;;4.05;;
27383;SDS011;14851;51.166;4.760;2024-01-30T11:28:55;10.68;;;3.78;;
27383;SDS011;14851;51.166;4.760;2024-01-30T11:33:52;7.47;;;2.65;;
27383;SDS011;14851;51.166;4.760;2024-01-30T11:36:20;6.10;;;2.17;;
27383;SDS011;14851;51.166;4.760;2024-01-30T11:38:49;8.82;;;2.13;;
27383;SDS011;14851;51.166;4.760;2024-01-30T11:41:15;3.83;;;1.40;;
27383;SDS011;14851;51.166;4.760;2024-01-30T11:43:41;8.23;;;1.40;;
27383;SDS011;14851;51.166;4.760;2024-01-30T11:46:10;6.20;;;1.88;;
27383;SDS011;14851;51.166;4.760;2024-01-30T11:48:38;6.07;;;1.30;;
27383;SDS011;14851;51.166;4.760;2024-01-30T11:51:06;4.07;;;1.35;;
27383;SDS011;14851;51.166;4.760;2024-01-30T11:53:32;3.67;;;1.13;;
27383;SDS011;14851;51.166;4.760;2024-01-30T11:56:00;3.45;;;1.00;;
27383;SDS011;14851;51.166;4.760;2024-01-30T11:58:26;4.35;;;0.85;;
27383;SDS011;14851;51.166;4.760;2024-01-30T12:00:55;3.67;;;0.60;;
27383;SDS011;14851;51.166;4.760;2024-01-30T12:03:23;5.40;;;0.80;;
27383;SDS011;14851;51.166;4.760;2024-01-30T12:05:56;4.75;;;0.70;;
27383;SDS011;14851;51.166;4.760;2024-01-30T12:08:23;4.32;;;0.82;;
27383;SDS011;14851;51.166;4.760;2024-01-30T12:10:56;1.52;;;0.60;;
27383;SDS011;14851;51.166;4.760;2024-01-30T12:13:30;2.72;;;0.68;;
27383;SDS011;14851;51.166;4.760;2024-01-30T12:15:56;4.10;;;0.85;;
27383;SDS011;14851;51.166;4.760;2024-01-30T12:18:25;2.10;;;0.60;;
27383;SDS011;14851;51.166;4.760;2024-01-30T12:21:00;4.93;;;0.98;;
27383;SDS011;14851;51.166;4.760;2024-01-30T12:23:28;2.30;;;0.70;;
27383;SDS011;14851;51.166;4.760;2024-01-30T12:25:55;5.15;;;0.80;;
27383;SDS011;14851;51.166;4.760;2024-01-30T12:28:21;3.75;;;0.68;;
27383;SDS011;14851;51.166;4.760;2024-01-30T12:30:47;1.75;;;0.60;;
27383;SDS011;14851;51.166;4.760;2024-01-30T12:33:17;3.17;;;0.70;;
27383;SDS011;14851;51.166;4.760;2024-01-30T12:35:46;4.70;;;0.80;;
27383;SDS011;14851;51.166;4.760;2024-01-30T12:38:15;1.88;;;0.85;;
27383;SDS011;14851;51.166;4.760;2024-01-30T12:40:41;4.53;;;0.80;;
27383;SDS011;14851;51.166;4.760;2024-01-30T12:43:07;3.80;;;1.20;;
27383;SDS011;14851;51.166;4.760;2024-01-30T12:45:34;3.13;;;0.75;;
27383;SDS011;14851;51.166;4.760;2024-01-30T12:48:01;3.05;;;0.70;;
27383;SDS011;14851;51.166;4.760;2024-01-30T12:50:28;2.75;;;0.75;;
27383;SDS011;14851;51.166;4.760;2024-01-30T12:52:53;2.90;;;0.60;;
27383;SDS011;14851;51.166;4.760;2024-01-30T12:55:23;4.43;;;0.63;;
27383;SDS011;14851;51.166;4.760;2024-01-30T12:57:50;2.58;;;0.82;;
27383;SDS011;14851;51.166;4.760;2024-01-30T13:00:18;4.00;;;0.80;;
27383;SDS011;14851;51.166;4.760;2024-01-30T13:02:44;3.20;;;0.70;;
27383;SDS011;14851;51.166;4.760;2024-01-30T13:05:11;2.45;;;0.80;;
27383;SDS011;14851;51.166;4.760;2024-01-30T13:07:37;2.35;;;0.50;;
27383;SDS011;14851;51.166;4.760;2024-01-30T13:10:03;3.80;;;0.90;;
27383;SDS011;14851;51.166;4.760;2024-01-30T13:12:30;3.85;;;0.75;;
27383;SDS011;14851;51.166;4.760;2024-01-30T13:14:57;2.83;;;0.73;;
27383;SDS011;14851;51.166;4.760;2024-01-30T13:17:26;3.67;;;1.30;;
27383;SDS011;14851;51.166;4.760;2024-01-30T13:19:53;6.75;;;0.77;;
27383;SDS011;14851;51.166;4.760;2024-01-30T13:22:19;2.92;;;0.88;;
27383;SDS011;14851;51.166;4.760;2024-01-30T13:24:49;3.75;;;0.80;;
27383;SDS011;14851;51.166;4.760;2024-01-30T13:27:16;2.60;;;0.75;;
27383;SDS011;14851;51.166;4.760;2024-01-30T13:29:43;4.07;;;1.23;;
27383;SDS011;14851;51.166;4.760;2024-01-30T13:32:10;1.15;;;0.47;;
27383;SDS011;14851;51.166;4.760;2024-01-30T13:34:39;2.38;;;0.70;;
27383;SDS011;14851;51.166;4.760;2024-01-30T13:37:06;4.75;;;1.23;;
27383;SDS011;14851;51.166;4.760;2024-01-30T13:39:32;2.63;;;1.00;;
27383;SDS011;14851;51.166;4.760;2024-01-30T13:42:03;2.85;;;0.85;;
27383;SDS011;14851;51.166;4.760;2024-01-30T13:44:31;5.35;;;1.00;;
27383;SDS011;14851;51.166;4.760;2024-01-30T13:46:57;3.55;;;0.50;;
27383;SDS011;14851;51.166;4.760;2024-01-30T13:49:26;3.00;;;1.00;;
27383;SDS011;14851;51.166;4.760;2024-01-30T13:51:53;2.53;;;1.05;;
27383;SDS011;14851;51.166;4.760;2024-01-30T13:54:19;2.92;;;0.80;;
27383;SDS011;14851;51.166;4.760;2024-01-30T13:56:45;4.15;;;1.20;;
27383;SDS011;14851;51.166;4.760;2024-01-30T13:59:11;2.50;;;0.82;;
27383;SDS011;14851;51.166;4.760;2024-01-30T14:01:37;2.65;;;0.98;;
27383;SDS011;14851;51.166;4.760;2024-01-30T14:04:06;3.60;;;0.88;;
27383;SDS011;14851;51.166;4.760;2024-01-30T14:06:32;5.38;;;1.98;;
27383;SDS011;14851;51.166;4.760;2024-01-30T14:08:58;2.67;;;0.90;;
27383;SDS011;14851;51.166;4.760;2024-01-30T14:11:24;5.75;;;1.63;;
27383;SDS011;14851;51.166;4.760;2024-01-30T14:13:50;3.08;;;0.98;;
27383;SDS011;14851;51.166;4.760;2024-01-30T14:16:19;5.47;;;1.58;;
27383;SDS011;14851;51.166;4.760;2024-01-30T14:18:46;4.38;;;1.10;;
27383;SDS011;14851;51.166;4.760;2024-01-30T14:21:15;4.28;;;1.10;;
27383;SDS011;14851;51.166;4.760;2024-01-30T14:23:41;3.75;;;1.15;;
27383;SDS011;14851;51.166;4.760;2024-01-30T14:26:07;4.65;;;1.02;;
27383;SDS011;14851;51.166;4.760;2024-01-30T14:28:33;5.28;;;1.63;;
27383;SDS011;14851;51.166;4.760;2024-01-30T14:31:02;7.75;;;1.80;;
27383;SDS011;14851;51.166;4.760;2024-01-30T14:33:28;3.15;;;1.00;;
27383;SDS011;14851;51.166;4.760;2024-01-30T14:35:54;5.40;;;1.25;;
27383;SDS011;14851;51.166;4.760;2024-01-30T14:38:20;4.47;;;0.98;;
27383;SDS011;14851;51.166;4.760;2024-01-30T14:40:52;6.18;;;0.95;;
27383;SDS011;14851;51.166;4.760;2024-01-30T14:43:18;3.17;;;1.08;;
27383;SDS011;14851;51.166;4.760;2024-01-30T14:45:44;3.05;;;0.95;;
27383;SDS011;14851;51.166;4.760;2024-01-30T14:48:12;4.75;;;0.88;;